Airfield :
LOGIN :

Register | Disclaimer

   EN    FR    IT 

 










Legend :    VFR   Marginal VFR   IFR   Intensive IFR   Very Intensive IFR
Visi :
Ceiling :
>= 8 km
>= 3000ft
5 to 8 km
1000 to 3000 ft
1500m to 5 km
500 to 1000 ft
800 to 1500m
200 to 500 ft
< 800m
< 200 ft
Symbols :   Thunderstorms  Fog  Heavy snow  Heavy precipitations  Wind > 20 kt
SIGMETs :     Misc.  Thunderstorms  Icing  Turbulence  Mountain Waves  Volcanic Ashes







- Airport Elevation : 408 ft
- IATA code : SOB


LHSM - Sarmellek Balaton

CURRENT METAR :
  • 210915Z 18003KT CAVOK 23/18 Q1017 NOSIG

EXPIRED METARs :
  • 210845Z 06002KT CAVOK 21/19 Q1017 NOSIG
  • 210815Z 07002KT 3500 BR FEW004 20/18 Q1018 BECMG 8000 NSW NSC
  • 210745Z 07003KT 3000 BR FEW002 18/18 Q1018 BECMG 8000 NSW NSC
  • 210715Z 08003KT 2000 BR SCT002 17/17 Q1018 BECMG 6000 NSW NSC
  • 210645Z 00000KT 2000 BR FEW002 17/17 Q1018 BECMG 6000 NSW NSC

TAF TAF LHSM
Valid from the 21 at 09:00 until the 21 at 18:00 UTC


210815Z 2109/2118 VRB03KT 5000 BR NSC
BECMG 2109/2111 17006KT CAVOK
No reported NOTAMs for that airfield.



MET'MAP, your aeronautical weather chart ! - Copyright ORBIFLY December 2007 - Disclaimer

ORBIFLY MET'MAP TEAM :

Programming & Development : Alexandra Zaïnal
Concept & Development : Baudouin d'Aumeries
Co-Development & Prog : Marc-Olivier Méhu
Technical & hardware support : Manuel Goepfert

Contact : metmap@orbifly.com




SOURCES & CREDITS :

   NOAA